Map

Track Data

SID SEASON NUMBER BASIN SUBBASIN NAME ISO_TIME NATURE LAT LON WMO_WIND WMO_PRES WMO_AGENCY TRACK_TYPE DIST2LAND LANDFALL IFLAG USA_AGENCY USA_ATCF_ID USA_LAT USA_LON USA_RECORD USA_STATUS USA_WIND USA_PRES USA_SSHS USA_R34_NE USA_R34_SE USA_R34_SW USA_R34_NW USA_R50_NE USA_R50_SE USA_R50_SW USA_R50_NW USA_R64_NE USA_R64_SE USA_R64_SW USA_R64_NW USA_POCI USA_ROCI USA_RMW USA_EYE TOKYO_LAT TOKYO_LON TOKYO_GRADE TOKYO_WIND TOKYO_PRES TOKYO_R50_DIR TOKYO_R50_LONG TOKYO_R50_SHORT TOKYO_R30_DIR TOKYO_R30_LONG TOKYO_R30_SHORT TOKYO_LAND CMA_LAT CMA_LON CMA_CAT CMA_WIND CMA_PRES HKO_LAT HKO_LON HKO_CAT HKO_WIND HKO_PRES NEWDELHI_LAT NEWDELHI_LON NEWDELHI_GRADE NEWDELHI_WIND NEWDELHI_PRES NEWDELHI_CI NEWDELHI_DP NEWDELHI_POCI REUNION_LAT REUNION_LON REUNION_TYPE REUNION_WIND REUNION_PRES REUNION_TNUM REUNION_CI REUNION_RMW REUNION_R34_NE REUNION_R34_SE REUNION_R34_SW REUNION_R34_NW REUNION_R50_NE REUNION_R50_SE REUNION_R50_SW REUNION_R50_NW REUNION_R64_NE REUNION_R64_SE REUNION_R64_SW REUNION_R64_NW BOM_LAT BOM_LON BOM_TYPE BOM_WIND BOM_PRES BOM_TNUM BOM_CI BOM_RMW BOM_R34_NE BOM_R34_SE BOM_R34_SW BOM_R34_NW BOM_R50_NE BOM_R50_SE BOM_R50_SW BOM_R50_NW BOM_R64_NE BOM_R64_SE BOM_R64_SW BOM_R64_NW BOM_ROCI BOM_POCI BOM_EYE BOM_POS_METHOD BOM_PRES_METHOD NADI_LAT NADI_LON NADI_CAT NADI_WIND NADI_PRES WELLINGTON_LAT WELLINGTON_LON WELLINGTON_WIND WELLINGTON_PRES DS824_LAT DS824_LON DS824_STAGE DS824_WIND DS824_PRES TD9636_LAT TD9636_LON TD9636_STAGE TD9636_WIND TD9636_PRES TD9635_LAT TD9635_LON TD9635_WIND TD9635_PRES TD9635_ROCI NEUMANN_LAT NEUMANN_LON NEUMANN_CLASS NEUMANN_WIND NEUMANN_PRES MLC_LAT MLC_LON MLC_CLASS MLC_WIND MLC_PRES USA_GUST BOM_GUST BOM_GUST_PER REUNION_GUST REUNION_GUST_PER USA_SEAHGT USA_SEARAD_NE USA_SEARAD_SE USA_SEARAD_SW USA_SEARAD_NW STORM_SPEED STORM_DIR
1969249N25283 1969 71 NA NA GERDA 1969-09-06 00:00:00 TS 24.5000 -77.0000 25 1015 hurdat_atl main 70 37 O_____________ hurdat_atl AL161969 24.5000 -77.0000 TD 25 1015 -1 13 317
1969249N25283 1969 71 NA NA GERDA 1969-09-06 03:00:00 TS 24.9752 -77.4893 main 41 23 P_____________ AL161969 24.9752 -77.4893 TD 25 -1 13 315
1969249N25283 1969 71 NA NA GERDA 1969-09-06 06:00:00 TS 25.4000 -78.0000 25 hurdat_atl main 33 33 O_____________ hurdat_atl AL161969 25.4000 -78.0000 TD 25 -1 12 309
1969249N25283 1969 71 NA NA GERDA 1969-09-06 09:00:00 TS 25.7376 -78.5302 main 78 78 P_____________ AL161969 25.7376 -78.5302 TD 25 -1 11 304
1969249N25283 1969 71 NA NA GERDA 1969-09-06 12:00:00 TS 26.0000 -79.0000 25 hurdat_atl main 109 79 O_____________ hurdat_atl AL161969 26.0000 -79.0000 TD 25 -1 9 304
1969249N25283 1969 71 NA NA GERDA 1969-09-06 15:00:00 TS 26.2297 -79.3303 main 79 49 P_____________ AL161969 26.2297 -79.3303 TD 25 -1 7 307
1969249N25283 1969 71 NA NA GERDA 1969-09-06 18:00:00 TS 26.4000 -79.6000 25 1014 hurdat_atl main 49 19 O_____________ hurdat_atl AL161969 26.4000 -79.6000 TD 25 1014 -1 6 297
1969249N25283 1969 71 NA NA GERDA 1969-09-06 21:00:00 TS 26.4773 -79.8781 main 19 0 P_____________ AL161969 26.4773 -79.8781 TD 25 1013 -1 6 290
1969249N25283 1969 71 NA NA GERDA 1969-09-07 00:00:00 TS 26.6000 -80.2000 25 1012 hurdat_atl main 0 0 O_____________ hurdat_atl AL161969 26.6000 -80.2000 TD 25 1012 -1 9 301
1969249N25283 1969 71 NA NA GERDA 1969-09-07 03:00:00 TS 26.9280 -80.7163 main 0 0 P_____________ AL161969 26.9280 -80.7163 TD 25 1011 -1 11 311
1969249N25283 1969 71 NA NA GERDA 1969-09-07 06:00:00 TS 27.3000 -81.1000 25 hurdat_atl main 0 0 I_____________ hurdat_atl AL161969 27.3000 -81.1000 TD 25 1011 -1 7 335
1969249N25283 1969 71 NA NA GERDA 1969-09-07 09:00:00 TS 27.5498 -81.0480 main 0 0 P_____________ AL161969 27.5498 -81.0480 TD 25 1010 -1 6 28
1969249N25283 1969 71 NA NA GERDA 1969-09-07 12:00:00 TS 27.8000 -80.8000 25 1010 hurdat_atl main 0 0 O_____________ hurdat_atl AL161969 27.8000 -80.8000 TD 25 1010 -1 7 33
1969249N25283 1969 71 NA NA GERDA 1969-09-07 15:00:00 TS 28.1500 -80.6076 main 9 9 P_____________ AL161969 28.1500 -80.6076 TD 25 1009 -1 8 27
1969249N25283 1969 71 NA NA GERDA 1969-09-07 18:00:00 TS 28.5000 -80.4000 25 hurdat_atl main 9 9 I_____________ hurdat_atl AL161969 28.5000 -80.4000 TD 25 1008 -1 7 31
1969249N25283 1969 71 NA NA GERDA 1969-09-07 21:00:00 TS 28.7500 -80.1923 main 44 36 P_____________ AL161969 28.7500 -80.1923 TD 27 1007 -1 6 35
1969249N25283 1969 71 NA NA GERDA 1969-09-08 00:00:00 TS 29.0000 -80.0000 30 1006 hurdat_atl main 73 73 O_____________ hurdat_atl AL161969 29.0000 -80.0000 TD 30 1006 -1 6 26
1969249N25283 1969 71 NA NA GERDA 1969-09-08 03:00:00 TS 29.3123 -79.8719 main 98 98 P_____________ AL161969 29.3123 -79.8719 TD 32 1005 -1 8 21
1969249N25283 1969 71 NA NA GERDA 1969-09-08 06:00:00 TS 29.7000 -79.7000 35 hurdat_atl main 134 134 I_____________ hurdat_atl AL161969 29.7000 -79.7000 TS 35 1004 0 9 26
1969249N25283 1969 71 NA NA GERDA 1969-09-08 09:00:00 TS 30.1549 -79.4020 main 185 185 P_____________ AL161969 30.1549 -79.4020 TS 40 1003 0 12 31
1969249N25283 1969 71 NA NA GERDA 1969-09-08 12:00:00 TS 30.7000 -79.0000 45 1002 hurdat_atl main 224 195 O_____________ hurdat_atl AL161969 30.7000 -79.0000 TS 45 1002 0 14 32
1969249N25283 1969 71 NA NA GERDA 1969-09-08 15:00:00 TS 31.3194 -78.5664 main 195 172 P_____________ AL161969 31.3194 -78.5664 TS 55 999 0 16 33
1969249N25283 1969 71 NA NA GERDA 1969-09-08 18:00:00 TS 32.0000 -78.0000 65 hurdat_atl main 172 155 I_____________ hurdat_atl AL161969 32.0000 -78.0000 HU 65 996 1 17 39
1969249N25283 1969 71 NA NA GERDA 1969-09-08 21:00:00 TS 32.6547 -77.2729 main 148 142 P_____________ AL161969 32.6547 -77.2729 HU 67 993 1 19 44
1969249N25283 1969 71 NA NA GERDA 1969-09-09 00:00:00 TS 33.4000 -76.4000 70 991 hurdat_atl main 145 99 O_____________ hurdat_atl AL161969 33.4000 -76.4000 HU 70 991 1 22 43
1969249N25283 1969 71 NA NA GERDA 1969-09-09 03:00:00 TS 34.2672 -75.4423 main 105 105 P_____________ AL161969 34.2672 -75.4423 HU 77 988 1 25 41
1969249N25283 1969 71 NA NA GERDA 1969-09-09 06:00:00 TS 35.3000 -74.4000 85 986 hurdat_atl main 113 113 O_____________ hurdat_atl AL161969 35.3000 -74.4000 HU 85 986 2 28 38
1969249N25283 1969 71 NA NA GERDA 1969-09-09 09:00:00 TS 36.5193 -73.3216 main 211 211 P_____________ AL161969 36.5193 -73.3216 HU 97 985 3 31 35
1969249N25283 1969 71 NA NA GERDA 1969-09-09 12:00:00 TS 37.8000 -72.2000 110 984 hurdat_atl main 259 256 O_____________ hurdat_atl AL161969 37.8000 -72.2000 HU 110 984 3 29 38
1969249N25283 1969 71 NA NA GERDA 1969-09-09 15:00:00 TS 38.8442 -71.0541 main 256 176 P_____________ AL161969 38.8442 -71.0541 HU 110 981 3 29 38
1969249N25283 1969 71 NA NA GERDA 1969-09-09 18:00:00 TS 40.1000 -69.9000 110 979 hurdat_atl main 169 93 O_____________ hurdat_atl AL161969 40.1000 -69.9000 HU 110 979 3 36 31
1969249N25283 1969 71 NA NA GERDA 1969-09-09 21:00:00 TS 41.8865 -68.6440 main 116 59 P_____________ AL161969 41.8865 -68.6440 HU 102 979 3 43 25
1969249N25283 1969 71 NA NA GERDA 1969-09-10 00:00:00 TS 44.0000 -67.5000 95 979 hurdat_atl main 54 0 O_____________ hurdat_atl AL161969 44.0000 -67.5000 HU 95 979 2 46 18
1969249N25283 1969 71 NA NA GERDA 1969-09-10 03:00:00 TS 46.2036 -66.6385 main 0 0 P_____________ AL161969 46.2036 -66.6385 HU 82 1 46 13
1969249N25283 1969 71 NA NA GERDA 1969-09-10 06:00:00 ET 48.5000 -66.0000 70 hurdat_atl main 0 0 O_____________ hurdat_atl AL161969 48.5000 -66.0000 EX 70 -4 46 10
1969249N25283 1969 71 NA NA GERDA 1969-09-10 09:00:00 ET 50.7653 -65.4812 main 0 0 P_____________ AL161969 50.7653 -65.4812 EX 55 -4 45 8
1969249N25283 1969 71 NA NA GERDA 1969-09-10 12:00:00 ET 53.0000 -65.0000 40 hurdat_atl main 0 O_____________ hurdat_atl AL161969 53.0000 -65.0000 EX 40 -4 45 7

About IBTrACS Database

This database is a web-friendly format of International Best Track Archive for Climate Stewardship (IBTrACS), a global best track data archive curated by NOAA dating back to 1842.

Updated: 2021-10-21